createdAt,value
2023-04-28T00:01:21.784Z,96.40
2023-04-28T00:06:23.613Z,95.90
2023-04-28T00:11:25.492Z,96.40
2023-04-28T00:16:27.378Z,96.80
2023-04-28T00:21:29.530Z,97.00
2023-04-28T00:26:31.748Z,96.10
2023-04-28T00:31:35.452Z,95.90
2023-04-28T00:36:37.339Z,96.70
2023-04-28T00:41:39.282Z,96.50
2023-04-28T00:46:41.887Z,96.50
2023-04-28T00:51:43.804Z,95.90
2023-04-28T00:56:45.719Z,96.90
2023-04-28T01:01:47.633Z,96.50
2023-04-28T01:06:51.494Z,97.00
2023-04-28T01:11:53.384Z,96.10
2023-04-28T01:16:56.276Z,96.30
2023-04-28T01:21:58.145Z,96.70
2023-04-28T01:27:00.210Z,96.40
2023-04-28T01:32:02.148Z,96.60
2023-04-28T01:37:04.000Z,97.00
2023-04-28T01:42:06.128Z,96.90
2023-04-28T01:47:08.009Z,97.20
2023-04-28T01:52:09.910Z,97.70
2023-04-28T01:57:11.739Z,97.20
2023-04-28T02:02:13.696Z,97.00
2023-04-28T02:07:15.659Z,97.80
2023-04-28T02:12:17.624Z,98.10
2023-04-28T02:17:19.514Z,97.90
2023-04-28T02:22:21.334Z,97.20
2023-04-28T02:27:23.792Z,97.60
2023-04-28T02:32:25.781Z,97.20
2023-04-28T02:37:27.702Z,97.80
2023-04-28T02:42:29.504Z,97.90
2023-04-28T02:47:31.380Z,97.50
2023-04-28T02:52:33.265Z,98.30
2023-04-28T02:57:35.124Z,98.10
2023-04-28T03:02:38.150Z,98.20
2023-04-28T03:07:40.142Z,97.90
2023-04-28T03:12:41.979Z,97.20
2023-04-28T03:17:43.894Z,98.40
2023-04-28T03:22:45.879Z,98.20
2023-04-28T03:27:47.857Z,97.00
2023-04-28T03:32:49.708Z,95.90
2023-04-28T03:37:51.552Z,95.20
2023-04-28T03:42:53.341Z,95.00
2023-04-28T03:47:55.203Z,94.80
2023-04-28T03:52:57.084Z,95.00
2023-04-28T03:57:58.931Z,95.70
2023-04-28T04:03:00.953Z,96.00
2023-04-28T04:08:03.060Z,96.00
2023-04-28T04:13:05.023Z,95.30
2023-04-28T04:18:07.032Z,94.80
2023-04-28T04:23:08.933Z,94.80
2023-04-28T04:28:11.353Z,95.00
2023-04-28T04:33:13.206Z,95.60
2023-04-28T04:38:15.096Z,95.50
2023-04-28T04:43:17.051Z,94.40
2023-04-28T04:48:18.935Z,93.30
2023-04-28T04:53:20.811Z,92.40
2023-04-28T04:58:22.724Z,92.40
2023-04-28T05:03:24.939Z,91.70
2023-04-28T05:08:26.911Z,90.90
2023-04-28T05:13:28.921Z,90.70
2023-04-28T05:18:30.747Z,90.30
2023-04-28T05:23:32.677Z,88.90
2023-04-28T05:28:34.697Z,87.10
2023-04-28T05:33:36.534Z,85.80
2023-04-28T05:38:38.438Z,85.80
2023-04-28T05:43:40.319Z,86.30
2023-04-28T05:48:42.122Z,83.70
2023-04-28T05:53:44.032Z,83.40
2023-04-28T05:58:46.710Z,81.30
2023-04-28T06:03:51.614Z,81.50
2023-04-28T06:08:53.791Z,81.10
2023-04-28T06:13:55.685Z,80.60
2023-04-28T06:18:57.831Z,78.20
2023-04-28T06:23:59.717Z,78.30
2023-04-28T06:29:02.053Z,77.50
2023-04-28T06:34:03.997Z,76.70
2023-04-28T06:39:05.838Z,76.00
2023-04-28T06:44:08.820Z,74.50
2023-04-28T06:49:10.872Z,74.90
2023-04-28T06:54:13.621Z,71.40
2023-04-28T06:59:15.655Z,71.30
2023-04-28T07:04:18.384Z,72.40
2023-04-28T07:09:20.531Z,71.40
2023-04-28T07:14:22.406Z,73.50
2023-04-28T07:19:24.256Z,71.50
2023-04-28T07:24:27.343Z,72.70
2023-04-28T07:29:33.766Z,70.90
2023-04-28T07:34:35.917Z,68.10
2023-04-28T07:39:39.357Z,69.50
2023-04-28T07:44:41.648Z,67.30
2023-04-28T07:49:43.546Z,67.60
2023-04-28T07:54:45.485Z,65.70
2023-04-28T07:59:47.354Z,66.50
2023-04-28T08:04:49.334Z,64.40
2023-04-28T08:09:53.217Z,63.40
2023-04-28T08:14:57.099Z,66.30
2023-04-28T08:19:59.335Z,65.20
2023-04-28T08:25:02.250Z,65.90
2023-04-28T08:30:09.357Z,67.40
2023-04-28T08:35:11.260Z,67.50
2023-04-28T08:40:13.315Z,68.80
2023-04-28T08:45:16.022Z,68.30
2023-04-28T08:50:22.197Z,68.60
2023-04-28T08:55:25.680Z,66.50
2023-04-28T09:00:28.588Z,66.10
2023-04-28T09:05:30.630Z,67.50
2023-04-28T09:10:32.783Z,66.70
2023-04-28T09:15:36.642Z,66.20
2023-04-28T09:20:38.471Z,67.40
2023-04-28T09:25:40.376Z,67.00
2023-04-28T09:30:42.448Z,67.90
2023-04-28T09:35:47.800Z,67.50
2023-04-28T09:40:58.441Z,68.00
2023-04-28T09:46:12.947Z,66.60
2023-04-28T09:51:20.764Z,63.90
2023-04-28T09:56:34.250Z,63.60
2023-04-28T10:01:40.857Z,64.10
2023-04-28T10:06:42.988Z,63.20
2023-04-28T10:11:44.863Z,63.20
2023-04-28T10:16:47.508Z,62.40
2023-04-28T10:22:00.805Z,62.50
2023-04-28T10:27:05.808Z,64.10
2023-04-28T10:32:26.570Z,62.90
2023-04-28T10:38:08.255Z,62.50
2023-04-28T10:43:14.612Z,62.50
2023-04-28T10:48:20.610Z,63.10
2023-04-28T10:53:54.176Z,60.60
2023-04-28T10:58:57.686Z,62.80
2023-04-28T11:04:00.748Z,60.60
2023-04-28T11:09:15.282Z,61.20
2023-04-28T11:14:20.339Z,61.40
2023-04-28T11:19:26.894Z,62.00
2023-04-28T11:24:30.230Z,61.60
2023-04-28T11:29:35.986Z,60.10
2023-04-28T11:34:38.108Z,61.00
2023-04-28T11:39:39.989Z,60.10
2023-04-28T11:44:42.352Z,59.90
2023-04-28T11:49:45.888Z,60.00
2023-04-28T11:54:53.686Z,60.30
2023-04-28T12:00:19.141Z,59.10
2023-04-28T12:05:22.548Z,61.00
2023-04-28T12:10:24.493Z,60.00
2023-04-28T12:15:40.094Z,60.30
2023-04-28T12:20:42.675Z,61.70
2023-04-28T12:25:45.390Z,60.20
2023-04-28T12:30:47.365Z,61.20
2023-04-28T12:35:49.932Z,60.50
2023-04-28T12:40:52.414Z,61.10
2023-04-28T12:45:55.167Z,61.30
2023-04-28T12:50:57.019Z,62.40
2023-04-28T12:55:59.415Z,62.90
2023-04-28T13:01:01.299Z,62.20
2023-04-28T13:06:03.811Z,63.80
2023-04-28T13:11:16.192Z,63.00
2023-04-28T13:16:29.172Z,63.00
2023-04-28T13:21:31.930Z,62.80
2023-04-28T13:26:33.856Z,64.30
2023-04-28T13:31:36.021Z,64.50
2023-04-28T13:36:38.637Z,63.40
2023-04-28T13:41:40.762Z,63.80
2023-04-28T13:46:43.050Z,63.20
2023-04-28T13:51:45.767Z,64.80
2023-04-28T13:56:47.598Z,64.70
2023-04-28T14:01:49.517Z,64.40
2023-04-28T14:06:52.345Z,64.10
2023-04-28T14:11:56.704Z,65.00
2023-04-28T14:16:58.928Z,65.50
2023-04-28T14:22:01.268Z,66.80
2023-04-28T14:27:03.365Z,64.90
2023-04-28T14:32:05.391Z,66.10
2023-04-28T14:37:07.749Z,67.50
2023-04-28T14:42:09.911Z,65.60
2023-04-28T14:47:12.382Z,66.80
2023-04-28T14:52:14.224Z,68.40
2023-04-28T14:57:16.461Z,68.10
2023-04-28T15:02:19.844Z,67.50
2023-04-28T15:07:22.176Z,67.60
2023-04-28T15:12:24.387Z,68.30
2023-04-28T15:17:26.471Z,68.70
2023-04-28T15:22:28.380Z,68.90
2023-04-28T15:27:30.222Z,69.30
2023-04-28T15:32:32.503Z,70.60
2023-04-28T15:37:37.485Z,69.80
2023-04-28T15:42:41.979Z,70.30
2023-04-28T15:47:45.203Z,72.90
2023-04-28T15:52:47.550Z,70.90
2023-04-28T15:57:49.507Z,72.40
2023-04-28T16:02:51.843Z,74.50
2023-04-28T16:07:55.097Z,74.20
2023-04-28T16:12:57.418Z,75.70
2023-04-28T16:17:59.320Z,76.80
2023-04-28T16:23:01.751Z,77.70
2023-04-28T16:28:04.106Z,79.10
2023-04-28T16:33:06.727Z,80.90
2023-04-28T16:38:08.977Z,83.50
2023-04-28T16:43:10.878Z,85.50
2023-04-28T16:48:16.052Z,88.10
2023-04-28T16:53:18.006Z,90.60
2023-04-28T16:58:19.820Z,91.60
2023-04-28T17:03:21.811Z,93.60
2023-04-28T17:08:23.792Z,94.70
2023-04-28T17:13:25.892Z,94.60
2023-04-28T17:18:28.168Z,96.80
2023-04-28T17:23:30.033Z,98.10
2023-04-28T17:28:32.722Z,99.80
2023-04-28T17:33:34.570Z,99.70
2023-04-28T17:38:37.989Z,99.90
2023-04-28T17:43:39.928Z,99.90
2023-04-28T17:48:43.041Z,99.90
2023-04-28T17:53:46.386Z,99.90
2023-04-28T17:58:48.395Z,99.90
2023-04-28T18:03:51.763Z,99.90
2023-04-28T18:08:53.993Z,99.90
2023-04-28T18:13:59.378Z,99.90
2023-04-28T18:19:01.287Z,99.90
2023-04-28T18:24:03.338Z,99.90
2023-04-28T18:29:05.166Z,99.90
2023-04-28T18:34:07.311Z,99.90
2023-04-28T18:39:10.044Z,99.90
2023-04-28T18:44:11.902Z,99.90
2023-04-28T18:49:14.651Z,99.90
2023-04-28T18:54:20.679Z,99.90
2023-04-28T18:59:27.026Z,99.90
2023-04-28T19:04:31.423Z,99.90
2023-04-28T19:09:43.395Z,99.90
2023-04-28T19:14:46.559Z,99.90
2023-04-28T19:19:48.555Z,99.90
2023-04-28T19:25:00.610Z,99.90
2023-04-28T19:30:04.871Z,99.90
2023-04-28T19:35:08.081Z,99.90
2023-04-28T19:40:12.146Z,99.90
2023-04-28T19:45:24.742Z,99.90
2023-04-28T19:50:26.825Z,99.90
2023-04-28T19:55:29.714Z,99.90
2023-04-28T20:00:35.693Z,99.90
2023-04-28T20:05:39.357Z,99.90
2023-04-28T20:10:46.703Z,99.90
2023-04-28T20:15:49.612Z,99.90
2023-04-28T20:20:53.115Z,99.90
2023-04-28T20:25:55.096Z,99.90
2023-04-28T20:30:56.979Z,99.90
2023-04-28T20:35:58.810Z,99.90
2023-04-28T20:41:02.095Z,99.90
2023-04-28T20:46:10.164Z,99.90
2023-04-28T20:51:12.121Z,99.90
2023-04-28T20:56:14.106Z,99.90
2023-04-28T21:01:15.997Z,99.90
2023-04-28T21:06:18.671Z,99.90
2023-04-28T21:11:20.853Z,99.90
2023-04-28T21:16:22.925Z,99.90
2023-04-28T21:21:24.811Z,99.90
2023-04-28T21:26:26.829Z,99.90
2023-04-28T21:31:28.713Z,99.90
2023-04-28T21:36:30.844Z,99.90
2023-04-28T21:41:32.876Z,99.90
2023-04-28T21:46:34.738Z,99.90
2023-04-28T21:51:37.426Z,99.90
2023-04-28T21:56:39.281Z,99.90
2023-04-28T22:01:41.757Z,99.90
2023-04-28T22:06:44.920Z,99.90
2023-04-28T22:11:46.851Z,99.90
2023-04-28T22:16:48.767Z,99.90
2023-04-28T22:21:53.774Z,99.90
2023-04-28T22:26:55.608Z,99.90
2023-04-28T22:31:58.957Z,99.90
2023-04-28T22:37:00.797Z,99.90
2023-04-28T22:42:04.290Z,99.90
2023-04-28T22:47:06.342Z,99.90
2023-04-28T22:52:08.178Z,99.90
2023-04-28T22:57:10.318Z,99.90
2023-04-28T23:02:13.667Z,99.90
2023-04-28T23:07:15.613Z,99.90
2023-04-28T23:12:17.561Z,99.90
2023-04-28T23:17:19.424Z,99.90
2023-04-28T23:22:21.316Z,99.90
2023-04-28T23:27:23.369Z,99.90
2023-04-28T23:32:25.259Z,99.90
2023-04-28T23:37:27.293Z,99.90
2023-04-28T23:42:29.602Z,99.90
2023-04-28T23:47:31.495Z,99.90
2023-04-28T23:52:33.388Z,99.90
2023-04-28T23:57:36.776Z,99.90
